Latest Weather Observations for Longerenong

IDV60801

Issued at 4:31 pm EDT Saturday 20 December 2014 (issued every 30 minutes, with the page automatically refreshed every 10 minutes)

About weather observations | Map of weather stations | Latest weather observations for VIC | Other Formats
Station Details ID: 079028 Name: LONGERENONG Lat: -36.67 Lon: 142.30 Height: 133.0 m
Data from the previous 72 hours. | See also: Recent months at Longerenong
Date/Time
EDT
Temp
°C
App
Temp
°C
Dew
Point
Rel
Hum
%
Delta-T
°C
Wind Press
QNH
hPa
Press
MSL
hPa
Rain
since 9 am
mm
Dir
 
Spd
km/h
Gust
km/h
Spd
kts
Gust
kts
20/04:30pm 28.3 - - - - S 6 22 3 12 - - 0.0
20/04:00pm 27.6 - - - - WSW 17 26 9 14 - - 0.0
20/03:30pm 27.0 - - - - WSW 13 22 7 12 - - 0.0
20/03:00pm 27.2 - - - - SSW 9 22 5 12 - - 0.0
20/02:30pm 26.1 - - - - SW 9 20 5 11 - - 0.0
20/02:00pm 25.3 - - - - W 11 22 6 12 - - 0.0
20/01:30pm 25.4 - - - - SW 9 19 5 10 - - 0.0
20/01:00pm 23.9 - - - - SW 13 22 7 12 - - 0.0
20/12:30pm 22.9 - - - - SSW 13 20 7 11 - - 0.0
20/12:00pm 21.8 - - - - WSW 11 19 6 10 - - 0.0
20/11:30am 21.4 - - - - SSW 9 19 5 10 - - 0.0
20/11:00am 19.4 - - - - SW 7 15 4 8 - - 0.0
20/10:30am 18.3 - - - - WNW 9 13 5 7 - - 0.0
20/10:00am 17.7 - - - - W 6 13 3 7 - - 0.0
20/09:30am 16.7 - - - - SW 6 9 3 5 - - 0.0
20/09:00am 15.8 - - - - WSW 2 6 1 3 - - 0.0
20/08:30am 15.0 - - - - CALM 0 4 0 2 - - 0.0
20/08:00am 14.8 - - - - CALM 0 4 0 2 - - 0.0
20/07:30am 12.8 - - - - CALM 0 2 0 1 - - 0.0
20/07:00am 10.0 - - - - CALM 0 0 0 0 - - 0.0
20/06:30am 8.6 - - - - CALM 0 0 0 0 - - 0.0
20/06:00am 8.0 - - - - CALM 0 0 0 0 - - 0.0
20/05:30am 8.3 - - - - CALM 0 0 0 0 - - 0.0
20/05:00am 8.4 - - - - CALM 0 0 0 0 - - 0.0
20/04:30am 9.4 - - - - CALM 0 0 0 0 - - 0.0
20/04:00am 9.4 - - - - CALM 0 0 0 0 - - 0.0
20/03:30am 8.8 - - - - SE 2 2 1 1 - - 0.0
20/03:00am 10.5 - - - - SSE 4 6 2 3 - - 0.0
20/02:30am 11.2 - - - - SE 6 9 3 5 - - 0.0
20/02:00am 12.1 - - - - ESE 4 6 2 3 - - 0.0
20/01:30am 12.4 - - - - S 9 11 5 6 - - 0.0
20/01:00am 13.5 - - - - S 11 17 6 9 - - 0.0
20/12:30am 14.0 - - - - S 11 17 6 9 - - 0.0
20/12:00am 14.7 - - - - S 15 19 8 10 - - 0.0
 
Date/Time
EDT
Temp
°C
App
Temp
°C
Dew
Point
Rel
Hum
%
Delta-T
°C
Wind Press
QNH
hPa
Press
MSL
hPa
Rain
since 9 am
mm
Dir
 
Spd
km/h
Gust
km/h
Spd
kts
Gust
kts
19/11:30pm 15.6 - - - - SSW 17 26 9 14 - - 0.0
19/11:00pm 16.2 - - - - SSW 17 20 9 11 - - 0.0
19/10:30pm 17.4 - - - - SSW 22 30 12 16 - - 0.0
19/10:00pm 17.8 - - - - S 20 26 11 14 - - 0.0
19/09:30pm 18.8 - - - - S 19 24 10 13 - - 0.0
19/09:00pm 19.9 - - - - S 17 22 9 12 - - 0.0
19/08:30pm 21.1 - - - - SSW 17 22 9 12 - - 0.0
19/08:00pm 22.0 - - - - SSW 20 24 11 13 - - 0.0
19/07:30pm 22.7 - - - - SSW 19 28 10 15 - - 0.0
19/07:00pm 23.1 - - - - SSW 22 30 12 16 - - 0.0
19/06:30pm 23.6 - - - - SSW 20 30 11 16 - - 0.0
19/06:00pm 23.9 - - - - SW 19 33 10 18 - - 0.0
19/05:30pm 23.2 - - - - WSW 20 35 11 19 - - 0.0
19/05:00pm 23.8 - - - - SSW 19 28 10 15 - - 0.0
19/04:30pm 23.6 - - - - SSW 24 32 13 17 - - 0.0
19/04:00pm 23.5 - - - - SSW 20 35 11 19 - - 0.0
19/03:30pm 22.4 - - - - SW 19 33 10 18 - - 0.0
19/03:00pm 22.4 - - - - SW 15 30 8 16 - - 0.0
19/02:30pm 22.1 - - - - SW 19 30 10 16 - - 0.0
19/02:00pm 21.5 - - - - SW 17 32 9 17 - - 0.0
19/01:30pm 21.0 - - - - SSW 17 32 9 17 - - 0.0
19/01:00pm 19.9 - - - - SSW 17 33 9 18 - - 0.0
19/12:30pm 19.2 - - - - SSW 19 33 10 18 - - 0.0
19/12:00pm 19.3 - - - - SW 24 33 13 18 - - 0.0
19/11:30am 19.0 - - - - SSW 24 35 13 19 - - 0.0
19/11:00am 17.9 - - - - SW 20 30 11 16 - - 0.0
19/10:30am 17.1 - - - - SW 15 28 8 15 - - 0.0
19/10:00am 16.2 - - - - SSW 17 24 9 13 - - 0.0
19/09:30am 16.0 - - - - SSW 17 22 9 12 - - 0.0
19/09:00am 14.1 - - - - S 9 17 5 9 - - 0.2
19/08:30am 13.1 - - - - SSW 4 9 2 5 - - 0.2
19/08:00am 11.3 - - - - SSW 7 11 4 6 - - 0.2
19/07:30am 9.6 - - - - SSW 2 6 1 3 - - 0.2
19/07:00am 8.6 - - - - CALM 0 0 0 0 - - 0.2
19/06:30am 6.5 - - - - CALM 0 0 0 0 - - 0.2
19/06:00am 6.4 - - - - SW 4 7 2 4 - - 0.2
19/05:30am 6.7 - - - - SW 7 9 4 5 - - 0.2
19/05:00am 7.6 - - - - SW 11 13 6 7 - - 0.2
19/04:30am 7.9 - - - - SW 9 13 5 7 - - 0.2
19/04:00am 7.9 - - - - SW 9 11 5 6 - - 0.2
19/03:30am 7.9 - - - - SW 7 9 4 5 - - 0.2
19/03:00am 9.1 - - - - WSW 9 11 5 6 - - 0.2
19/02:30am 9.3 - - - - SW 9 13 5 7 - - 0.2
19/02:00am 9.0 - - - - SW 7 9 4 5 - - 0.2
19/01:30am 9.5 - - - - SW 7 9 4 5 - - 0.2
19/01:00am 9.8 - - - - SW 7 9 4 5 - - 0.2
19/12:30am 10.8 - - - - SSW 11 13 6 7 - - 0.2
19/12:00am 11.8 - - - - SW 11 13 6 7 - - 0.2
 
Date/Time
EDT
Temp
°C
App
Temp
°C
Dew
Point
Rel
Hum
%
Delta-T
°C
Wind Press
QNH
hPa
Press
MSL
hPa
Rain
since 9 am
mm
Dir
 
Spd
km/h
Gust
km/h
Spd
kts
Gust
kts
18/11:30pm 12.9 - - - - SSW 13 19 7 10 - - 0.2
18/11:00pm 13.8 - - - - SSW 17 22 9 12 - - 0.2
18/10:30pm 14.5 - - - - SSW 19 24 10 13 - - 0.2
18/10:00pm 14.8 - - - - SSW 13 17 7 9 - - 0.2
18/09:30pm 15.5 - - - - SSW 13 19 7 10 - - 0.2
18/09:00pm 16.3 - - - - SSW 19 24 10 13 - - 0.2
18/08:30pm 17.8 - - - - SW 22 35 12 19 - - 0.2
18/08:00pm 19.0 - - - - SW 30 41 16 22 - - 0.2
18/07:30pm 19.7 - - - - SW 30 43 16 23 - - 0.2
18/07:00pm 19.9 - - - - WSW 30 39 16 21 - - 0.2
18/06:30pm 21.0 - - - - WSW 30 43 16 23 - - 0.2
18/06:00pm 20.1 - - - - WSW 30 48 16 26 - - 0.2
18/05:30pm 21.8 - - - - WSW 33 52 18 28 - - 0.2
18/05:00pm 21.1 - - - - WSW 33 48 18 26 - - 0.0
18/04:30pm 20.3 - - - - WSW 32 46 17 25 - - 0.0
18/04:00pm 20.1 - - - - WSW 35 50 19 27 - - 0.0
18/03:30pm 18.3 - - - - WSW 33 46 18 25 - - 0.0
18/03:00pm 20.5 - - - - WSW 30 46 16 25 - - 0.0
18/02:30pm 18.5 - - - - WSW 28 41 15 22 - - 0.0
18/02:02pm 17.1 - - - - WSW 52 72 28 39 - - 0.0
18/02:00pm 17.3 - - - - WSW 52 72 28 39 - - 0.0
18/01:57pm 18.6 - - - - W 46 72 25 39 - - 0.0
18/01:54pm 22.1 - - - - W 39 69 21 37 - - 0.0
18/01:49pm 22.3 - - - - W 32 50 17 27 - - 0.0
18/01:30pm 21.1 - - - - W 30 39 16 21 - - 0.0
18/01:00pm 22.1 - - - - W 32 43 17 23 - - 0.0
18/12:30pm 21.7 - - - - WNW 26 41 14 22 - - 0.0
18/12:00pm 20.3 - - - - WNW 28 39 15 21 - - 0.0
18/11:30am 18.9 - - - - W 30 44 16 24 - - 0.0
18/11:00am 18.6 - - - - WNW 26 39 14 21 - - 0.0
18/10:30am 18.7 - - - - WNW 28 37 15 20 - - 0.0
18/10:00am 18.6 - - - - W 22 35 12 19 - - 0.0
18/09:30am 18.8 - - - - WNW 17 24 9 13 - - 0.0
18/09:00am 17.1 - - - - W 19 28 10 15 - - 0.0
18/08:30am 16.0 - - - - W 15 22 8 12 - - 0.0
18/08:00am 14.6 - - - - W 15 20 8 11 - - 0.0
18/07:30am 12.6 - - - - W 11 15 6 8 - - 0.0
18/07:00am 9.3 - - - - NNW 7 7 4 4 - - 0.0
18/06:30am 7.5 - - - - NW 6 6 3 3 - - 0.0
18/06:00am 7.1 - - - - WNW 7 9 4 5 - - 0.0
18/05:30am 7.2 - - - - W 4 6 2 3 - - 0.0
18/05:00am 8.5 - - - - WSW 6 6 3 3 - - 0.0
18/04:30am 8.8 - - - - WSW 6 7 3 4 - - 0.0
18/04:00am 9.0 - - - - WSW 6 9 3 5 - - 0.0
18/03:30am 9.3 - - - - WSW 7 7 4 4 - - 0.0
18/03:00am 8.9 - - - - W 6 6 3 3 - - 0.0
18/02:30am 10.2 - - - - CALM 0 2 0 1 - - 0.0
18/02:00am 11.3 - - - - SSW 6 7 3 4 - - 0.0
18/01:30am 12.1 - - - - SSW 7 7 4 4 - - 0.0
18/01:00am 12.6 - - - - SSW 7 9 4 5 - - 0.0
18/12:30am 14.1 - - - - SW 11 13 6 7 - - 0.0
18/12:00am 15.1 - - - - SW 11 15 6 8 - - 0.0
 
Date/Time
EDT
Temp
°C
App
Temp
°C
Dew
Point
Rel
Hum
%
Delta-T
°C
Wind Press
QNH
hPa
Press
MSL
hPa
Rain
since 9 am
mm
Dir
 
Spd
km/h
Gust
km/h
Spd
kts
Gust
kts
17/11:30pm 15.4 - - - - SW 11 13 6 7 - - 0.0
17/11:00pm 16.3 - - - - WSW 9 11 5 6 - - 0.0
17/10:30pm 17.5 - - - - WSW 11 15 6 8 - - 0.0
17/10:00pm 18.7 - - - - WSW 13 19 7 10 - - 0.0
17/09:30pm 19.5 - - - - WSW 13 17 7 9 - - 0.0
17/09:00pm 19.9 - - - - WSW 7 11 4 6 - - 0.0
17/08:30pm 21.5 - - - - W 11 15 6 8 - - 0.0
17/08:00pm 22.6 - - - - W 11 17 6 9 - - 0.0
17/07:30pm 23.3 - - - - W 13 20 7 11 - - 0.0
17/07:00pm 23.6 - - - - W 13 19 7 10 - - 0.0
17/06:30pm 24.0 - - - - SW 15 24 8 13 - - 0.0
17/06:00pm 24.3 - - - - W 15 28 8 15 - - 0.0
17/05:30pm 23.7 - - - - WNW 22 32 12 17 - - 0.0
17/05:00pm 23.5 - - - - W 17 28 9 15 - - 0.0

Other Formats:

Comma delimited format used in spreadsheet applications
http://www.bom.gov.au/fwo/IDV60801/IDV60801.95835.axf

JavaScript Object Notation format (JSON) in row-major order
http://www.bom.gov.au/fwo/IDV60801/IDV60801.95835.json